VHHH Airport Information

Runway Information
Runway 07L Length 12467 ft width 197 ft
Elevation 22 ft Threshold 565 ft Heading 71
Runway 25R Length 12467 ft Width 197 ft
Elevation 23 ft Threshold 580 ft Heading 251
Runway 07R Length 12467 ft width 197 ft
Elevation 28 ft Threshold 525 ft Heading 71
Runway 25L Length 12467 ft Width 197 ft
Elevation 27 ft Threshold 0 ft Heading 251
Airport Frequencies
Type AFIS Name FLIGHT SER Frequency 122.4 MHZ
Type APP Name APP Frequency 119.1 MHZ
Type APP Name Director Frequency 119.5 MHZ
Type ATIS-A Name Arrivel Frequency 128.2 MHZ
Type ATIS-D Name Departure Frequency 127.05 MHZ
Type CAC Name ZONE CON Frequency 120.6 MHZ
Type CLD Name CLNC DEL Frequency 129.9 MHZ
Type DEP Name DEP Frequency 123.8 MHZ
Type EMG Name Hong Kong Frequency 121.5 MHZ
Type GND Name GND North Frequency 121.6 MHZ
Type GND Name GND South Frequency 122.55 MHZ
Type RDR Name Radar Frequency 121.3 MHZ
Type RDR Name PRECISION Frequency 133.7 MHZ
Type TWR Name Tower Nort Frequency 118.2 MHZ
Type TWR Name TWR South Frequency 118.4 MHZ
Airport Navaids
Type VOR-DME Name Cheung Chau Frequency 112300 KHZ
Type NDB Name Cape D Aguilar Frequency 338 KHZ
Type NDB Name Lam Chau Frequency 390 KHZ
Type VOR-DME Name Lung Kwu Chau Frequency 113200 KHZ
Type VOR-DME Name Siu Mo To Frequency 114800 KHZ
Type VOR-DME Name Tathong Point Frequency 115500 KHZ
Airport Weather Information & NOTAM
ADDS - METARS form results

(0135 UTC 19 August 2018)
 
METAR text: VHHH 190130Z 30004KT 9999 -SHRA FEW008 SCT020 28/26 Q1003 NOSIG
Conditions at: VHHH (HONG KONG INTL , HK) observed 0130 UTC 19 August 2018
Temperature: 28.0°C (82°F)
Dewpoint: 26.0°C (79°F) [RH = 89%]
Pressure (altimeter): 29.62 inches Hg (1003.0 mb)
Winds: from the WNW (300 degrees) at 5 MPH (4 knots; 2.1 m/s)
Visibility: 6 or more miles (10+ km)
Ceiling: at least 12,000 feet AGL
Clouds: few clouds at 800 feet AGL
scattered clouds at 2000 feet AGL
Weather: -SHRA  (light rain showers)

METAR text: VHHH 190100Z 31006KT 9999 -SHRA FEW008 SCT020 27/26 Q1003 TEMPO 3500 SHRA FEW010CB SCT020
Conditions at: VHHH (HONG KONG INTL , HK) observed 0100 UTC 19 August 2018
Temperature: 27.0°C (81°F)
Dewpoint: 26.0°C (79°F) [RH = 94%]
Pressure (altimeter): 29.62 inches Hg (1003.0 mb)
Winds: from the NW (310 degrees) at 7 MPH (6 knots; 3.1 m/s)
Visibility: 6 or more miles (10+ km)
Ceiling: at least 12,000 feet AGL
Clouds: few clouds at 800 feet AGL
scattered clouds at 2000 feet AGL
Weather: -SHRA  (light rain showers)